Cushman, Massachusetts
Current Conditions -  °F | °C
As of 12:06 AM on Thursday 23 Oct 2014 (Local Time) from KCEF Reporting Station
Thunderstorm Thunderstorm  
Wind Chill: 42°   Ceiling: 1700
Heat Index: 48°   Visibility: 4mi
Dew Point: 46°   Wind: 16mph
Humidity: 93%   Direction: 20°NNE
Pressure: 29.82"   Gusts: NA
Location:  42.3773°N, 72.4671°W
Report Text: KCEF 230406Z AUTO 02014KT 4SM +TSRA BR FEW003 BKN017 OVC023 09/08 A2982 RMK AO2 BKN V OVC PRESFR
Loading
Personal Weather Stations






























Interactive Weather Map
Tropical Storm Tracking
New forecast layout! Learn more

10-Day Weather Forecast

Advertisements
Track Severe Weather on mobile